Relevés horaires Bruxelles-National (Belgique)


Relevés horaires à Bruxelles-National - Lundi 02 Mai 2022
Heure UTC1 Température [°C] Vent [km/h] Hum. [%] Pres.4 [hPa] Visi. [Km] Nébu. [octa] Préc.5 [mm] Cond.
2m. Res. Ros. Dir.2 Vit. Moy. Raf.3
23:00 8.7 8.7 3.8 N 3.7 5.6 7.4 71 1020(0.7/3h) 45 1/8 -- --
22:00 10.6 10.3 4.6 N 5.6 5.6 9.3 66 1019.8(1.0/3h) 45 1/8 -- --
21:00 11.8 11.6 4.0 N 5.6 9.3 13.0 59 1019.5(1.2/3h) 40 1/8 -- --
20:00 12.4 12.4 5.5 NNO 3.7 7.4 11.1 63 1019.3(0.9/3h) 30 1/8 -- --
19:00 14.3 14.2 4.8 NNO 7.4 9.3 13.0 53 1018.7(0.3/3h) 30 0/8 -- --
18:00 16.5 16.5 2.1 N 7.4 9.3 14.8 38 1018.3(-0.4/3h) 30 0/8 0/12h
--
17:00 17.3 17.3 1.0 N 7.4 9.3 13.0 33 1018.2(-0.9/3h) 30 1/8 -- --
16:00 17.8 17.8 -- NNE 7.4 9.3 13.0 -- 1018.3(-1.2/3h) 30 1/8 -- --
15:00 18.3 18.3 -- NE 5.6 9.3 14.8 -- 1018.6(-1.2/3h) 30 1/8 -- --
14:00 18.0 18.0 -0.2 NNO 7.4 9.3 14.8 29 1019.1(-1.1/3h) 30 1/8 -- --
13:00 17.2 17.2 1.2 N 7.4 7.4 13.0 34 1019.6(-1.0/3h) 30 1/8 -- --
12:00 16.7 16.7 1.7 NNE 5.6 7.4 13.0 36 1019.9(-0.9/3h) 30 1/8 0/6h
--
11:00 16.5 16.5 2.1 N 7.4 7.4 13.0 38 1020.3(-0.5/3h) 30 1/8 -- --
10:00 15.0 15.0 1.6 NE 3.7 7.4 13.0 40 1020.6(-0.2/3h) 20 0/8 -- --
09:00 14.3 14.3 3.5 ENE 3.7 5.6 9.3 48 1020.9(0.3/3h) 20 0/8 -- --
08:00 12.1 12.1 4.5 NE 3.7 3.7 7.4 60 1020.9(0.3/3h) 20 0/8 -- --
07:00 9.4 9.4 4.3 ENE 1.9 1.9 3.7 70 1020.9(0.4/3h) 10 0/8 -- --
06:00 7.3 7.3 4.3 NNO 0.0 1.9 1.9 81 1020.7(0.0/3h) 10 0/8 0/12h
--
05:00 4.2 4.2 2.1 NNO 0.0 1.9 1.9 86 1020.7(-0.3/3h) 9 1/8 -- --
04:00 5.1 5.1 3.1 NNO 0.0 0.0 1.9 87 1020.6(-0.6/3h) 8 1/8 -- --
03:00 5.8 5.8 3.1 NNO 0.0 1.9 1.9 83 1020.7(-0.9/3h) 11 1/8 -- --
02:00 6.1 6.1 2.9 NNO 0.0 1.9 1.9 80 1020.9(-1.0/3h) 11 1/8 -- --
01:00 6.2 6.2 3.1 NNO 0.0 1.9 1.9 80 1021.2(-0.9/3h) 15 1/8 -- --
00:00 7.4 7.4 2.1 NE 1.9 3.7 5.6 69 1021.6(-0.8/3h) 25 1/8 0/6h
0/24h
--

1 Coordinated Universal Time. Actuellement il est 05:00 locale et 03:00 UTC.

2 Le vent souffle depuis la direction indiquée vers la direction oposée.

3 Les rafales max. sont disponible 40 min après l'heure du relevé.

4 Pour les stations d'altitude (plus de 600m) le géopotentiel du niveau le plus proche de la pression obligatoire est indiqué.

5 Les stations disposant d'un diffuseur peuvent indiquer "trace". Cela signifie que des précipitations ont touchés le sol mais que la quantité est inférieure à 0.1 mm.

Récapitulatif de la journée
Température [°C] Vent [km/h] Ensoleillement4 [h] Precipitations totale5 [mm] Pression [Hpa]
Min1 Max.2 Moy.3 Max. Min Max.
3.8 18.8 5.7 14.8 0 h 0 min 0 1018.2 1021.6

1 Température minimale relevée entre 18:00 UTC la veille et 18:00 UTC le jour donné.

2 Température maximale relevée entre 06:00 UTC le jour donné et 06:00 UTC le lendemain.

3 Vent moyen de la journée basé sur les relevés horaires.

4 Ensoleillement en heures relevé entre 06:00 UTC la veille et 06:00 UTC le jour donné.

5 Précipitations totales tombées entre 06:00 UTC la jour donné et 06:00 UTC le lendemain.

Graphiques horaires